Time;durP1;ratioP1;P1;durP2;ratioP2;P2;SDS_P1;SDS_P2;PMS_P1;PMS_P2;Temp;Humidity;BMP_temperature;BMP_pressure;BME280_temperature;BME280_humidity;BME280_pressure;Samples;Min_cycle;Max_cycle;Signal;HPM_P1;HPM_P2
2022/11/07 00:02:05;;;;;;;9.57;5.10;;;9.70;99.90;;;;;;5012621;28;20478;-71
2022/11/07 00:04:31;;;;;;;7.78;4.50;;;9.70;99.90;;;;;;5013086;28;20049;-71
2022/11/07 00:06:57;;;;;;;11.27;4.45;;;9.70;99.90;;;;;;5012685;28;20044;-72
2022/11/07 00:09:23;;;;;;;10.20;4.55;;;9.70;99.90;;;;;;4996081;28;20045;-71
2022/11/07 00:11:48;;;;;;;7.38;4.70;;;9.70;99.90;;;;;;5041711;28;20044;-71
2022/11/07 00:14:15;;;;;;;10.25;4.80;;;9.70;99.90;;;;;;4995621;28;20049;-71
2022/11/07 00:16:42;;;;;;;9.00;5.28;;;9.60;99.90;;;;;;5027350;28;20137;-72
2022/11/07 00:19:08;;;;;;;7.10;4.78;;;9.70;99.90;;;;;;5012486;28;20241;-71
2022/11/07 00:21:34;;;;;;;8.60;4.93;;;9.70;99.90;;;;;;5013031;28;20534;-71
2022/11/07 00:24:00;;;;;;;11.52;5.63;;;9.70;99.90;;;;;;5025991;28;20057;-71
2022/11/07 00:26:26;;;;;;;8.30;4.93;;;9.60;99.90;;;;;;5008754;28;20554;-71
2022/11/07 00:28:51;;;;;;;7.95;4.47;;;9.70;99.90;;;;;;5044097;28;20368;-72
2022/11/07 00:31:17;;;;;;;8.50;4.72;;;9.70;99.90;;;;;;5029222;28;20412;-71
2022/11/07 00:33:43;;;;;;;6.82;4.30;;;9.70;99.90;;;;;;5013086;28;20772;-71
2022/11/07 00:36:14;;;;;;;7.55;4.28;;;9.70;99.90;;;;;;5009280;28;20042;-71
2022/11/07 00:38:40;;;;;;;7.53;4.95;;;9.60;99.90;;;;;;5011972;28;20093;-71
2022/11/07 00:41:06;;;;;;;8.98;4.35;;;9.60;99.90;;;;;;5011427;28;20156;-72
2022/11/07 00:43:32;;;;;;;7.38;4.35;;;9.70;99.90;;;;;;4996415;28;20050;-72
2022/11/07 00:46:02;;;;;;;7.45;4.63;;;9.60;99.90;;;;;;5013818;28;20050;-73
2022/11/07 00:48:28;;;;;;;6.78;3.97;;;9.60;99.90;;;;;;5014482;28;20045;-71
2022/11/07 00:50:54;;;;;;;6.90;4.50;;;9.60;99.90;;;;;;5012888;28;20100;-71
2022/11/07 00:53:19;;;;;;;7.10;4.03;;;9.60;99.90;;;;;;5011735;28;20081;-71
2022/11/07 00:55:46;;;;;;;6.85;5.03;;;9.60;99.90;;;;;;4995205;28;20065;-71
2022/11/07 00:58:12;;;;;;;6.03;4.05;;;9.50;99.90;;;;;;5010943;28;20078;-71
2022/11/07 01:00:38;;;;;;;6.80;3.97;;;9.60;99.90;;;;;;5008302;28;20054;-71
2022/11/07 01:05:58;;;;;;;5.38;4.03;;;9.50;99.90;;;;;;5006784;28;20050;-71
2022/11/07 01:08:24;;;;;;;6.00;4.30;;;9.50;99.90;;;;;;5011676;28;20049;-71
2022/11/07 01:10:49;;;;;;;6.88;3.88;;;9.50;99.90;;;;;;5010859;28;20041;-71
2022/11/07 01:13:15;;;;;;;6.32;3.75;;;9.50;99.90;;;;;;5012631;28;20058;-71
2022/11/07 01:15:41;;;;;;;7.45;3.88;;;9.60;99.90;;;;;;5011468;28;20045;-72
2022/11/07 01:18:07;;;;;;;6.85;3.70;;;9.50;99.90;;;;;;5027517;28;20446;-71
2022/11/07 01:20:34;;;;;;;5.38;3.60;;;9.60;99.90;;;;;;5011998;28;20112;-71
2022/11/07 01:22:59;;;;;;;6.65;3.38;;;9.60;99.90;;;;;;5026346;28;20053;-73
2022/11/07 01:25:25;;;;;;;5.85;3.83;;;9.70;99.90;;;;;;5011755;28;20042;-73
2022/11/07 01:27:51;;;;;;;7.03;3.63;;;9.70;99.90;;;;;;5011372;28;20042;-74
2022/11/07 01:30:17;;;;;;;6.72;3.28;;;9.70;99.90;;;;;;5028093;28;20049;-72
2022/11/07 01:32:43;;;;;;;5.93;3.53;;;9.70;99.90;;;;;;4993084;28;20050;-73
2022/11/07 01:35:08;;;;;;;7.38;3.45;;;9.80;99.90;;;;;;5032379;28;20467;-73
2022/11/07 01:37:34;;;;;;;6.97;3.67;;;9.80;99.90;;;;;;5007972;28;20046;-72
2022/11/07 01:40:00;;;;;;;6.85;3.42;;;9.80;99.90;;;;;;4992357;28;20043;-73
2022/11/07 01:42:26;;;;;;;8.38;3.53;;;9.80;99.90;;;;;;4999926;28;20406;-73
2022/11/07 01:44:56;;;;;;;8.85;4.65;;;9.80;99.90;;;;;;4990939;28;20054;-72
2022/11/07 01:47:24;;;;;;;12.63;6.30;;;9.70;99.90;;;;;;5005009;28;20042;-73
2022/11/07 01:49:50;;;;;;;13.07;6.23;;;9.80;99.90;;;;;;5010966;28;20375;-72
2022/11/07 01:52:33;;;;;;;12.85;6.57;;;9.90;99.90;;;;;;5026160;28;20292;-74
2022/11/07 01:55:09;;;;;;;15.30;7.28;;;9.90;99.90;;;;;;4995036;28;20107;-72
2022/11/07 01:57:51;;;;;;;13.20;6.28;;;9.80;99.90;;;;;;5010956;28;20085;-73
2022/11/07 02:00:19;;;;;;;12.48;5.60;;;9.90;99.90;;;;;;5028601;28;20487;-72
2022/11/07 02:02:47;;;;;;;9.18;5.07;;;9.90;99.90;;;;;;5011337;28;20418;-73
2022/11/07 02:05:16;;;;;;;8.05;4.72;;;10.00;99.90;;;;;;5011023;28;20107;-72
2022/11/07 02:07:41;;;;;;;7.95;4.65;;;10.00;99.90;;;;;;5011264;28;20057;-72
2022/11/07 02:10:07;;;;;;;10.35;4.32;;;10.00;99.90;;;;;;5026817;28;20345;-73
2022/11/07 02:12:33;;;;;;;10.55;4.68;;;10.10;99.90;;;;;;5025927;28;20345;-73
2022/11/07 02:14:59;;;;;;;8.98;3.88;;;10.10;99.90;;;;;;5010697;28;20099;-73
2022/11/07 02:17:24;;;;;;;7.20;4.18;;;10.10;99.90;;;;;;5021600;28;20152;-72
2022/11/07 02:19:52;;;;;;;8.57;3.83;;;10.10;99.90;;;;;;5010468;28;20077;-73
2022/11/07 02:22:42;;;;;;;9.30;4.25;;;10.10;99.90;;;;;;4978454;28;20042;-72
2022/11/07 02:25:09;;;;;;;6.72;3.80;;;10.10;99.90;;;;;;5009318;28;20090;-73
2022/11/07 02:27:35;;;;;;;10.63;5.07;;;10.10;99.90;;;;;;5011087;28;20053;-72
2022/11/07 02:30:03;;;;;;;8.23;3.97;;;10.10;99.90;;;;;;4993275;28;20296;-74
2022/11/07 02:32:29;;;;;;;10.23;3.60;;;10.10;99.90;;;;;;5011160;28;20057;-72
2022/11/07 02:35:06;;;;;;;8.85;3.60;;;10.10;99.90;;;;;;5026617;28;20148;-73
2022/11/07 02:37:35;;;;;;;11.40;3.55;;;10.10;99.90;;;;;;5008755;28;20054;-73
2022/11/07 02:40:07;;;;;;;9.32;3.90;;;10.10;99.90;;;;;;5004372;28;20405;-73
2022/11/07 02:42:45;;;;;;;6.55;3.55;;;10.10;99.90;;;;;;5010342;28;20078;-72
2022/11/07 02:45:14;;;;;;;6.55;3.67;;;10.10;99.90;;;;;;5021973;28;20066;-72
2022/11/07 02:47:40;;;;;;;5.80;3.00;;;10.10;99.90;;;;;;5009883;28;20052;-72
2022/11/07 02:50:07;;;;;;;6.47;3.65;;;10.10;99.90;;;;;;5024457;28;20435;-72
2022/11/07 02:52:33;;;;;;;9.43;3.50;;;10.10;99.90;;;;;;5023888;28;20050;-72
2022/11/07 02:54:59;;;;;;;8.23;3.13;;;10.10;99.90;;;;;;4991918;28;20423;-72
2022/11/07 02:57:25;;;;;;;7.38;3.45;;;10.10;99.90;;;;;;5009208;28;20467;-72
2022/11/07 02:59:51;;;;;;;6.10;3.30;;;10.10;99.90;;;;;;5010766;28;20100;-73
2022/11/07 03:02:17;;;;;;;8.40;3.80;;;10.20;99.90;;;;;;5027011;28;20038;-72
2022/11/07 03:04:43;;;;;;;10.35;4.55;;;10.10;99.90;;;;;;5019180;28;20072;-73
2022/11/07 03:07:08;;;;;;;9.38;5.60;;;10.20;99.90;;;;;;4993555;28;20748;-72
2022/11/07 03:09:34;;;;;;;8.65;4.25;;;10.20;99.90;;;;;;5010496;28;20080;-72
2022/11/07 03:12:00;;;;;;;7.30;4.55;;;10.20;99.90;;;;;;5023851;28;20133;-73
2022/11/07 03:14:25;;;;;;;9.07;4.68;;;10.20;99.90;;;;;;5005492;28;20379;-73
2022/11/07 03:16:51;;;;;;;11.65;4.65;;;10.30;99.90;;;;;;5030508;28;20471;-74
2022/11/07 03:19:17;;;;;;;9.95;4.03;;;10.20;99.90;;;;;;4989310;28;20376;-73
2022/11/07 03:21:43;;;;;;;6.55;3.50;;;10.20;99.90;;;;;;5019922;28;20053;-73
2022/11/07 03:24:09;;;;;;;9.13;3.55;;;10.20;99.90;;;;;;4978268;28;20081;-74
2022/11/07 03:26:34;;;;;;;7.82;3.55;;;10.20;99.90;;;;;;5009742;28;20320;-74
2022/11/07 03:29:00;;;;;;;8.85;4.20;;;10.20;99.90;;;;;;5029505;28;20547;-73
2022/11/07 03:31:26;;;;;;;7.80;4.05;;;10.30;99.90;;;;;;5030325;28;20042;-73
2022/11/07 03:33:51;;;;;;;7.28;3.80;;;10.30;99.90;;;;;;5029309;28;20353;-74
2022/11/07 03:36:17;;;;;;;7.93;3.70;;;10.30;99.90;;;;;;4997819;28;20041;-74
2022/11/07 03:38:43;;;;;;;9.05;3.72;;;10.30;99.90;;;;;;5030501;28;20052;-73
2022/11/07 03:41:09;;;;;;;9.88;4.25;;;10.30;99.90;;;;;;4997959;28;20056;-72
2022/11/07 03:43:34;;;;;;;6.60;3.50;;;10.30;99.90;;;;;;5028789;28;20058;-73
2022/11/07 03:46:00;;;;;;;9.70;3.35;;;10.30;99.90;;;;;;5014097;28;20502;-73
2022/11/07 03:48:26;;;;;;;9.05;3.35;;;10.40;99.90;;;;;;5009467;28;20050;-72
2022/11/07 03:50:51;;;;;;;11.82;3.55;;;10.40;99.90;;;;;;5014095;28;20060;-72
2022/11/07 03:53:17;;;;;;;8.88;3.60;;;10.30;99.90;;;;;;5013456;28;20049;-72
2022/11/07 03:55:45;;;;;;;8.90;3.20;;;10.40;99.90;;;;;;5007434;28;20180;-73
2022/11/07 03:58:11;;;;;;;9.13;3.10;;;10.40;99.90;;;;;;5026888;28;20054;-73
2022/11/07 04:00:37;;;;;;;6.60;2.85;;;10.40;99.90;;;;;;5046574;28;20053;-73
2022/11/07 04:03:03;;;;;;;9.82;3.65;;;10.40;99.90;;;;;;5026129;28;20380;-73
2022/11/07 04:05:29;;;;;;;11.43;4.47;;;10.40;99.90;;;;;;5029331;28;20053;-72
2022/11/07 04:07:55;;;;;;;8.75;3.75;;;10.40;99.90;;;;;;4991701;28;20056;-72
2022/11/07 04:10:21;;;;;;;9.07;3.50;;;10.50;99.90;;;;;;4993862;28;20042;-72
2022/11/07 04:18:14;;;;;;;7.75;3.40;;;10.50;99.90;;;;;;4995190;28;20053;-73
2022/11/07 04:20:40;;;;;;;9.13;3.20;;;10.50;99.90;;;;;;5013590;28;20042;-73
2022/11/07 04:23:06;;;;;;;8.90;3.88;;;10.50;99.90;;;;;;4995760;28;20426;-73
2022/11/07 04:28:16;;;;;;;7.13;3.05;;;10.50;99.90;;;;;;5013404;28;20056;-73
2022/11/07 04:30:42;;;;;;;5.78;2.80;;;10.50;99.90;;;;;;4994004;28;20514;-73
2022/11/07 04:33:08;;;;;;;6.95;3.00;;;10.50;99.90;;;;;;4996541;28;20096;-72
2022/11/07 04:35:34;;;;;;;9.48;2.78;;;10.50;99.90;;;;;;5009688;28;20073;-73
2022/11/07 04:38:00;;;;;;;6.43;2.95;;;10.60;99.90;;;;;;5040782;28;20084;-73
2022/11/07 04:40:26;;;;;;;9.43;2.70;;;10.50;99.90;;;;;;5028593;28;20052;-72
2022/11/07 04:42:52;;;;;;;5.47;2.60;;;10.50;99.90;;;;;;5012552;28;20058;-72
2022/11/07 04:45:18;;;;;;;6.75;2.60;;;10.50;99.90;;;;;;5009875;28;20046;-73
2022/11/07 04:47:44;;;;;;;7.10;2.80;;;10.50;99.90;;;;;;5026396;28;20132;-73
2022/11/07 04:50:11;;;;;;;4.82;2.80;;;10.50;99.90;;;;;;5008914;28;20049;-73
2022/11/07 04:52:37;;;;;;;7.50;2.75;;;10.50;99.90;;;;;;5012545;28;20061;-72
2022/11/07 04:55:03;;;;;;;5.93;2.33;;;10.50;99.90;;;;;;5011573;28;20054;-73
2022/11/07 04:57:29;;;;;;;4.40;2.08;;;10.40;99.90;;;;;;4996739;28;20132;-73
2022/11/07 04:59:55;;;;;;;4.30;2.50;;;10.40;99.90;;;;;;4996070;28;20125;-72
2022/11/07 05:02:23;;;;;;;4.53;1.92;;;10.40;99.90;;;;;;4993296;28;20101;-73
2022/11/07 05:04:48;;;;;;;6.47;1.90;;;10.50;99.90;;;;;;5011820;28;20121;-72
2022/11/07 05:07:14;;;;;;;4.38;2.03;;;10.50;99.90;;;;;;5008323;28;20153;-72
2022/11/07 05:09:40;;;;;;;4.68;2.00;;;10.50;99.90;;;;;;5029336;28;20483;-72
2022/11/07 05:12:05;;;;;;;3.47;1.85;;;10.50;99.90;;;;;;5012242;28;20478;-72
2022/11/07 05:14:31;;;;;;;4.75;2.05;;;10.40;99.90;;;;;;5026081;28;20050;-73
2022/11/07 05:16:57;;;;;;;8.82;1.90;;;10.50;99.90;;;;;;5012288;28;20045;-72
2022/11/07 05:19:23;;;;;;;4.32;1.80;;;10.50;99.90;;;;;;4992728;28;20046;-73
2022/11/07 05:23:11;;;;;;;5.40;2.03;;;10.50;99.90;;;;;;5025130;28;20049;-72
2022/11/07 05:24:37;;;;;;;;;;;10.50;99.90;;;;;;4993632;28;20050;-72
2022/11/07 05:27:03;;;;;;;5.60;1.90;;;10.50;99.90;;;;;;4990222;28;19924;-73
2022/11/07 05:29:29;;;;;;;4.40;1.90;;;10.40;99.90;;;;;;5025665;28;20137;-72
2022/11/07 05:31:55;;;;;;;3.47;2.00;;;10.50;99.90;;;;;;5027504;28;20161;-73
2022/11/07 05:34:20;;;;;;;5.70;2.22;;;10.40;99.90;;;;;;5007956;28;20044;-72
2022/11/07 05:36:46;;;;;;;5.78;2.13;;;10.40;99.90;;;;;;5008427;28;20057;-72
2022/11/07 05:39:12;;;;;;;3.78;1.63;;;10.40;99.90;;;;;;4995089;28;20068;-72
2022/11/07 05:41:38;;;;;;;4.07;1.80;;;10.40;99.90;;;;;;4992223;28;20042;-73
2022/11/07 05:44:04;;;;;;;5.72;2.05;;;10.40;99.90;;;;;;4991782;28;20189;-73
2022/11/07 05:46:30;;;;;;;6.22;1.98;;;10.40;99.90;;;;;;5025731;28;20576;-73
2022/11/07 05:48:55;;;;;;;3.55;2.20;;;10.40;99.90;;;;;;5010611;28;20129;-72
2022/11/07 05:51:21;;;;;;;4.43;1.83;;;10.40;99.90;;;;;;5010606;28;20038;-71
2022/11/07 05:53:47;;;;;;;3.67;1.80;;;10.40;99.90;;;;;;5011469;28;20041;-72
2022/11/07 05:56:13;;;;;;;4.03;1.75;;;10.40;99.90;;;;;;5044642;28;20049;-72
2022/11/07 05:58:38;;;;;;;4.93;2.03;;;10.40;99.90;;;;;;5009173;28;20053;-73
2022/11/07 06:01:04;;;;;;;3.90;1.80;;;10.40;99.90;;;;;;5024695;28;20112;-74
2022/11/07 06:03:30;;;;;;;4.43;2.10;;;10.40;99.90;;;;;;5027777;28;20054;-75
2022/11/07 06:05:56;;;;;;;4.38;1.95;;;10.40;99.90;;;;;;5012007;28;20056;-73
2022/11/07 06:08:22;;;;;;;3.25;1.65;;;10.40;99.90;;;;;;5025357;28;20074;-71
2022/11/07 06:10:48;;;;;;;6.15;1.63;;;10.40;99.90;;;;;;5010990;28;20049;-72
2022/11/07 06:13:15;;;;;;;4.32;1.58;;;10.30;99.90;;;;;;4991140;28;20050;-73
2022/11/07 06:15:41;;;;;;;6.22;1.90;;;10.40;99.90;;;;;;4995186;28;20423;-73
2022/11/07 06:18:17;;;;;;;2.83;1.50;;;10.40;99.90;;;;;;5010868;28;20088;-75
2022/11/07 06:20:43;;;;;;;6.15;1.40;;;10.40;99.90;;;;;;5027371;28;20064;-73
2022/11/07 06:23:09;;;;;;;4.38;1.40;;;10.40;99.90;;;;;;5027518;28;20388;-73
2022/11/07 06:25:35;;;;;;;5.90;1.98;;;10.40;99.90;;;;;;5013724;28;20754;-73
2022/11/07 06:28:05;;;;;;;5.25;1.70;;;10.40;99.90;;;;;;5028709;28;20398;-73
2022/11/07 06:30:31;;;;;;;5.10;2.25;;;10.40;99.90;;;;;;5012452;28;20042;-74
2022/11/07 06:33:01;;;;;;;4.45;2.00;;;10.50;99.90;;;;;;5012986;28;20068;-73
2022/11/07 06:35:28;;;;;;;5.03;1.92;;;10.40;99.90;;;;;;5028045;28;20041;-73
2022/11/07 06:37:53;;;;;;;4.43;2.10;;;10.50;99.90;;;;;;5019764;28;20543;-72
2022/11/07 06:40:19;;;;;;;6.93;2.50;;;10.40;99.90;;;;;;5010820;28;20042;-74
2022/11/07 06:42:45;;;;;;;6.18;2.47;;;10.50;99.90;;;;;;5010753;28;20033;-72
2022/11/07 06:45:11;;;;;;;7.40;2.25;;;10.40;99.90;;;;;;5010691;28;20075;-72
2022/11/07 06:47:36;;;;;;;7.65;2.40;;;10.40;99.90;;;;;;4992636;28;20420;-73
2022/11/07 06:50:03;;;;;;;5.85;2.22;;;10.40;99.90;;;;;;5024213;28;20073;-74
2022/11/07 06:52:28;;;;;;;6.22;1.80;;;10.40;99.90;;;;;;5023536;28;20074;-74
2022/11/07 06:54:54;;;;;;;5.35;1.92;;;10.40;99.90;;;;;;5024090;28;20088;-74
2022/11/07 06:57:20;;;;;;;5.28;2.10;;;10.40;99.90;;;;;;4996798;28;20050;-72
2022/11/07 06:59:46;;;;;;;6.57;2.22;;;10.30;99.90;;;;;;5010230;28;20045;-74
2022/11/07 07:02:12;;;;;;;6.93;2.60;;;10.40;99.90;;;;;;4995071;28;20108;-75
2022/11/07 07:04:38;;;;;;;8.50;3.15;;;10.50;99.90;;;;;;5022517;28;20054;-74
2022/11/07 07:07:03;;;;;;;9.18;2.75;;;10.60;99.90;;;;;;5006028;28;20440;-74
2022/11/07 07:09:29;;;;;;;5.28;2.25;;;10.60;99.90;;;;;;5007591;28;20053;-74
2022/11/07 07:11:55;;;;;;;7.38;1.90;;;10.50;99.90;;;;;;5009565;28;20045;-75
2022/11/07 07:14:20;;;;;;;7.18;1.95;;;10.60;99.90;;;;;;5009482;28;20053;-74
2022/11/07 07:16:46;;;;;;;11.75;2.88;;;10.60;99.90;;;;;;5006696;28;20069;-74
2022/11/07 07:19:12;;;;;;;4.68;2.10;;;10.50;99.90;;;;;;5024662;28;20042;-74
2022/11/07 07:21:38;;;;;;;6.43;1.80;;;10.60;99.90;;;;;;5010718;28;20048;-73
2022/11/07 07:24:04;;;;;;;6.30;1.75;;;10.50;99.90;;;;;;5010912;28;20053;-73
2022/11/07 07:26:29;;;;;;;5.55;1.70;;;10.50;99.90;;;;;;5009559;28;20046;-74
2022/11/07 07:28:55;;;;;;;4.28;2.00;;;10.50;99.90;;;;;;5009953;28;20058;-73
2022/11/07 07:31:23;;;;;;;5.40;1.80;;;10.50;99.90;;;;;;4989178;28;20068;-74
2022/11/07 07:33:49;;;;;;;5.15;2.00;;;10.50;99.90;;;;;;5010535;28;20088;-73
2022/11/07 07:36:15;;;;;;;7.40;2.10;;;10.50;99.90;;;;;;5011050;28;20415;-73
2022/11/07 07:38:41;;;;;;;7.32;1.70;;;10.50;99.90;;;;;;5024893;28;20046;-72
2022/11/07 07:41:06;;;;;;;3.95;1.55;;;10.60;99.90;;;;;;5010177;28;20148;-73
2022/11/07 07:43:32;;;;;;;6.10;1.60;;;10.60;99.90;;;;;;5009848;28;20069;-73
2022/11/07 07:45:59;;;;;;;5.53;1.40;;;10.60;99.90;;;;;;5023585;28;20039;-73
2022/11/07 07:48:25;;;;;;;4.75;1.48;;;10.60;99.90;;;;;;5023101;28;20042;-72
2022/11/07 07:50:51;;;;;;;6.35;1.70;;;10.70;99.90;;;;;;5009841;28;20045;-73
2022/11/07 07:53:16;;;;;;;4.30;1.67;;;10.70;99.90;;;;;;4976800;28;20072;-72
2022/11/07 07:55:42;;;;;;;4.88;1.70;;;10.70;99.90;;;;;;5022510;28;20947;-72
2022/11/07 07:58:09;;;;;;;6.13;2.10;;;10.80;99.90;;;;;;5026224;28;20129;-72
2022/11/07 08:00:35;;;;;;;7.40;2.08;;;10.80;99.90;;;;;;5022685;28;20041;-72
2022/11/07 08:03:08;;;;;;;6.78;2.30;;;10.80;99.90;;;;;;5016676;28;20062;-73
2022/11/07 08:05:33;;;;;;;8.15;2.03;;;10.90;99.90;;;;;;5011375;28;20052;-73
2022/11/07 08:07:59;;;;;;;4.88;1.92;;;10.90;99.90;;;;;;4976455;28;20041;-73
2022/11/07 08:10:25;;;;;;;4.72;1.70;;;11.00;99.90;;;;;;5010627;28;20042;-73
2022/11/07 08:12:51;;;;;;;5.70;2.25;;;11.00;99.90;;;;;;5013532;28;20046;-73
2022/11/07 08:15:17;;;;;;;7.60;2.25;;;11.00;99.90;;;;;;5014644;28;20045;-73
2022/11/07 08:17:43;;;;;;;4.90;1.67;;;11.10;99.90;;;;;;5025672;28;20160;-73
2022/11/07 08:20:10;;;;;;;5.22;1.90;;;11.20;99.90;;;;;;5012251;28;20125;-74
2022/11/07 08:22:36;;;;;;;4.70;1.58;;;11.20;99.90;;;;;;5012497;28;20060;-72
2022/11/07 08:25:03;;;;;;;5.63;1.98;;;11.30;99.90;;;;;;5012897;28;20056;-73
2022/11/07 08:27:29;;;;;;;7.57;2.17;;;11.30;99.90;;;;;;5012802;28;20056;-74
2022/11/07 08:29:54;;;;;;;6.63;2.45;;;11.40;99.90;;;;;;5026535;28;20062;-72
2022/11/07 08:32:20;;;;;;;6.85;2.00;;;11.50;99.90;;;;;;5012059;28;20046;-73
2022/11/07 08:34:46;;;;;;;6.28;2.15;;;11.50;99.90;;;;;;5014565;28;20432;-73
2022/11/07 08:37:12;;;;;;;9.63;2.10;;;11.60;99.90;;;;;;4996619;28;20057;-73
2022/11/07 08:39:37;;;;;;;7.65;2.03;;;11.60;99.90;;;;;;5026472;28;20053;-72
2022/11/07 08:42:03;;;;;;;7.13;2.17;;;11.70;99.90;;;;;;5013912;28;20060;-74
2022/11/07 08:44:31;;;;;;;5.63;2.03;;;11.70;99.90;;;;;;5013053;28;20084;-73
2022/11/07 08:46:57;;;;;;;4.85;1.67;;;11.70;99.90;;;;;;5007562;28;20042;-72
2022/11/07 08:49:23;;;;;;;8.63;2.70;;;11.70;99.90;;;;;;4995173;28;20454;-73
2022/11/07 08:51:48;;;;;;;6.10;1.95;;;11.80;99.90;;;;;;5009769;28;20066;-72
2022/11/07 08:54:14;;;;;;;7.22;2.20;;;11.80;99.90;;;;;;5007927;28;20045;-72
2022/11/07 08:56:40;;;;;;;7.55;2.20;;;11.90;99.90;;;;;;4995544;28;20038;-72
2022/11/07 08:59:05;;;;;;;8.05;3.13;;;11.90;99.90;;;;;;5023979;28;20140;-72
2022/11/07 09:01:31;;;;;;;7.15;1.90;;;12.00;99.90;;;;;;5010180;28;20510;-72
2022/11/07 09:03:57;;;;;;;6.15;2.00;;;12.00;99.90;;;;;;4993166;28;20357;-73
2022/11/07 09:06:23;;;;;;;9.55;2.78;;;12.00;99.90;;;;;;5012801;28;20054;-72
2022/11/07 09:08:48;;;;;;;6.93;2.03;;;12.00;99.90;;;;;;4996658;28;20111;-73
2022/11/07 09:11:17;;;;;;;9.20;2.13;;;12.10;99.90;;;;;;4995235;28;20080;-73
2022/11/07 09:13:43;;;;;;;5.97;2.08;;;12.20;99.90;;;;;;5026180;28;20046;-74
2022/11/07 09:16:09;;;;;;;9.13;2.33;;;12.20;99.90;;;;;;5045180;28;20060;-72
2022/11/07 09:18:34;;;;;;;8.10;2.20;;;12.30;99.90;;;;;;5012012;28;20049;-73
2022/11/07 09:21:00;;;;;;;11.63;2.83;;;12.30;99.90;;;;;;5025329;28;20046;-72
2022/11/07 09:23:26;;;;;;;8.93;3.10;;;12.40;99.90;;;;;;5018642;28;20116;-73
2022/11/07 09:25:52;;;;;;;8.57;2.85;;;12.40;99.90;;;;;;5010526;28;20456;-73
2022/11/07 09:28:18;;;;;;;14.18;2.80;;;12.40;99.90;;;;;;4995104;28;20475;-73
2022/11/07 09:30:43;;;;;;;9.55;2.70;;;12.40;99.90;;;;;;5025022;28;20061;-72
2022/11/07 09:33:09;;;;;;;10.90;3.08;;;12.40;99.90;;;;;;5025647;28;20456;-73
2022/11/07 09:35:38;;;;;;;13.95;3.00;;;12.50;99.90;;;;;;5025399;28;20392;-73
2022/11/07 09:38:04;;;;;;;10.85;3.08;;;12.50;99.90;;;;;;5005976;28;20099;-71
2022/11/07 09:40:58;;;;;;;6.20;2.30;;;12.60;99.90;;;;;;5031141;28;20200;-73
2022/11/07 09:43:48;;;;;;;8.43;2.38;;;12.60;99.90;;;;;;5005848;28;20054;-73
2022/11/07 09:46:49;;;;;;;10.02;2.63;;;12.70;99.90;;;;;;5021959;28;20069;-73
2022/11/07 09:49:31;;;;;;;8.45;2.60;;;12.70;99.90;;;;;;5006979;28;20034;-72
2022/11/07 09:52:11;;;;;;;7.82;2.65;;;12.80;99.90;;;;;;4986402;28;20100;-73
2022/11/07 09:54:38;;;;;;;9.40;2.78;;;12.90;99.90;;;;;;5002390;28;20050;-73
2022/11/07 09:57:04;;;;;;;9.80;2.63;;;12.90;99.90;;;;;;5010744;28;20042;-72
2022/11/07 09:59:40;;;;;;;9.23;2.63;;;12.90;99.90;;;;;;5010627;28;20494;-73
2022/11/07 10:02:17;;;;;;;7.72;2.53;;;12.90;99.90;;;;;;5022816;28;20045;-73
2022/11/07 10:04:43;;;;;;;10.68;3.10;;;13.00;99.90;;;;;;4979253;28;20095;-74
2022/11/07 10:07:27;;;;;;;7.65;2.65;;;13.00;99.90;;;;;;5010509;28;20045;-72
2022/11/07 10:10:19;;;;;;;8.82;2.90;;;13.00;99.90;;;;;;4994771;28;20045;-71
2022/11/07 10:13:42;;;;;;;13.35;3.28;;;13.00;99.90;;;;;;5006118;28;20480;-72
2022/11/07 10:16:38;;;;;;;8.73;2.53;;;13.00;99.90;;;;;;5007366;28;20135;-72
2022/11/07 10:19:25;;;;;;;7.30;2.00;;;13.10;99.90;;;;;;4995440;28;20060;-71
2022/11/07 10:21:59;;;;;;;12.43;2.60;;;13.20;99.90;;;;;;5000925;28;20145;-72
2022/11/07 10:25:00;;;;;;;7.38;2.70;;;13.30;99.90;;;;;;5011975;28;20112;-72
2022/11/07 10:27:25;;;;;;;9.00;2.42;;;13.40;99.90;;;;;;5026844;28;20050;-72
2022/11/07 10:29:53;;;;;;;15.60;3.35;;;13.40;99.90;;;;;;5011074;28;20046;-73
2022/11/07 10:32:28;;;;;;;8.97;2.33;;;13.40;99.90;;;;;;5005473;28;20100;-73
2022/11/07 10:35:12;;;;;;;11.13;2.30;;;13.60;99.90;;;;;;5021262;28;20045;-72
2022/11/07 10:37:38;;;;;;;9.07;2.72;;;13.70;99.90;;;;;;5011735;28;20042;-73
2022/11/07 10:40:17;;;;;;;10.65;2.83;;;13.80;99.90;;;;;;5010196;28;20115;-73
2022/11/07 10:42:42;;;;;;;10.13;2.40;;;13.70;99.90;;;;;;5027104;28;20049;-73
2022/11/07 10:45:16;;;;;;;8.73;2.60;;;13.90;99.90;;;;;;5010610;28;20053;-73
2022/11/07 10:47:42;;;;;;;8.15;2.55;;;14.20;99.90;;;;;;5027035;28;20491;-73
2022/11/07 10:50:18;;;;;;;7.25;2.50;;;13.90;99.90;;;;;;5010804;28;20076;-73
2022/11/07 10:52:56;;;;;;;6.72;2.55;;;14.00;99.90;;;;;;5022238;28;20500;-73
2022/11/07 10:55:22;;;;;;;7.22;3.30;;;13.90;99.90;;;;;;4994231;28;20627;-73
2022/11/07 10:58:03;;;;;;;11.82;2.90;;;13.90;99.90;;;;;;5008924;28;20781;-73
2022/11/07 11:00:33;;;;;;;9.50;3.13;;;13.70;99.90;;;;;;4991081;28;20084;-73
2022/11/07 11:02:59;;;;;;;7.07;2.75;;;13.60;99.90;;;;;;5016562;28;20042;-73
2022/11/07 11:05:32;;;;;;;10.82;3.13;;;13.60;99.90;;;;;;5008544;28;20049;-72
2022/11/07 11:08:16;;;;;;;21.10;3.03;;;13.50;99.90;;;;;;5004713;28;20133;-72
2022/11/07 11:10:42;;;;;;;6.05;2.20;;;13.50;99.90;;;;;;5036744;28;20045;-73
2022/11/07 11:13:34;;;;;;;7.05;2.75;;;13.50;99.90;;;;;;4994499;28;20152;-73
2022/11/07 11:16:12;;;;;;;9.23;2.22;;;13.40;99.90;;;;;;5025714;28;20041;-73
2022/11/07 11:18:38;;;;;;;7.45;2.40;;;13.40;99.90;;;;;;5042452;28;20042;-70
2022/11/07 11:21:05;;;;;;;17.23;2.50;;;13.40;99.90;;;;;;5010419;28;20050;-72
2022/11/07 11:23:34;;;;;;;9.32;2.00;;;13.40;99.90;;;;;;5009942;28;20061;-71
2022/11/07 11:26:02;;;;;;;5.22;2.28;;;13.40;99.90;;;;;;5023024;28;20056;-70
2022/11/07 11:28:40;;;;;;;12.55;2.95;;;13.40;99.90;;;;;;5009969;28;20068;-71
2022/11/07 11:31:14;;;;;;;11.73;3.38;;;13.30;99.90;;;;;;4986840;28;20614;-70
2022/11/07 11:34:11;;;;;;;5.45;2.08;;;13.30;99.90;;;;;;4995275;28;20053;-70
2022/11/07 11:36:47;;;;;;;5.55;1.85;;;13.30;99.90;;;;;;5009837;28;20056;-70
2022/11/07 11:39:29;;;;;;;9.90;2.30;;;13.30;99.90;;;;;;5006245;28;20795;-71
2022/11/07 11:41:56;;;;;;;8.88;2.08;;;13.30;99.90;;;;;;5020933;28;20084;-71
2022/11/07 11:44:34;;;;;;;7.13;2.05;;;13.30;99.90;;;;;;5023509;28;20137;-71
2022/11/07 11:47:07;;;;;;;5.90;1.92;;;13.40;99.90;;;;;;4994883;28;20043;-70
2022/11/07 11:49:54;;;;;;;6.30;2.20;;;13.40;99.90;;;;;;5013135;28;20052;-70
2022/11/07 11:52:23;;;;;;;7.10;1.95;;;13.50;99.90;;;;;;5012653;28;20053;-72
2022/11/07 11:54:50;;;;;;;10.15;2.20;;;13.50;99.90;;;;;;5027291;28;20046;-71
2022/11/07 11:57:31;;;;;;;4.78;1.75;;;13.50;99.90;;;;;;5016309;28;20380;-71
2022/11/07 12:00:01;;;;;;;8.48;2.10;;;13.50;99.90;;;;;;4999256;28;20149;-71
2022/11/07 12:02:33;;;;;;;11.88;2.53;;;13.50;99.90;;;;;;5013350;28;20456;-71
2022/11/07 12:05:14;;;;;;;7.88;1.90;;;13.60;99.90;;;;;;5013929;28;20065;-71
2022/11/07 12:07:57;;;;;;;9.60;2.80;;;13.70;99.90;;;;;;5013008;28;20139;-72
2022/11/07 12:10:57;;;;;;;7.70;2.33;;;13.80;99.90;;;;;;5014857;28;20072;-71
2022/11/07 12:13:41;;;;;;;9.40;2.33;;;13.80;99.90;;;;;;5010205;28;20076;-71
2022/11/07 12:16:21;;;;;;;11.23;3.00;;;13.80;99.90;;;;;;5013860;28;20046;-71
2022/11/07 12:19:09;;;;;;;7.43;2.20;;;13.70;99.90;;;;;;5006928;28;20100;-71
2022/11/07 12:22:20;;;;;;;6.70;2.50;;;13.70;99.90;;;;;;5046132;28;20370;-71
2022/11/07 12:25:01;;;;;;;5.95;2.00;;;13.70;99.90;;;;;;5020081;28;20056;-71
2022/11/07 12:27:40;;;;;;;7.20;2.35;;;13.70;99.90;;;;;;5012768;28;20095;-71
2022/11/07 12:30:24;;;;;;;7.88;1.98;;;13.90;99.90;;;;;;5025073;28;20144;-70
2022/11/07 12:33:11;;;;;;;7.45;2.20;;;14.10;99.90;;;;;;5012700;28;20042;-72
2022/11/07 12:35:43;;;;;;;8.47;2.37;;;14.20;99.90;;;;;;4993152;28;20475;-71
2022/11/07 12:38:18;;;;;;;8.43;2.28;;;14.40;99.90;;;;;;5012233;28;20056;-71
2022/11/07 12:40:58;;;;;;;9.27;2.47;;;14.40;99.90;;;;;;5012732;28;20306;-71
2022/11/07 12:43:42;;;;;;;8.95;2.38;;;14.50;99.90;;;;;;5007150;28;20050;-71
2022/11/07 12:46:51;;;;;;;9.55;2.78;;;14.50;99.90;;;;;;5023642;28;20046;-71
2022/11/07 12:49:38;;;;;;;8.77;2.70;;;14.50;99.90;;;;;;5026689;28;20046;-71
2022/11/07 12:52:34;;;;;;;11.57;2.75;;;14.40;99.90;;;;;;5012833;28;20107;-70
2022/11/07 12:55:04;;;;;;;6.10;1.92;;;14.50;99.90;;;;;;5006326;28;20142;-70
2022/11/07 12:57:31;;;;;;;5.80;1.30;;;14.50;99.90;;;;;;5011446;28;20053;-71
2022/11/07 13:00:26;;;;;;;13.63;2.08;;;14.50;99.90;;;;;;5021799;28;20475;-70
2022/11/07 13:03:24;;;;;;;6.47;1.58;;;14.50;99.90;;;;;;5039709;28;20049;-70
2022/11/07 13:06:02;;;;;;;5.38;1.50;;;14.50;99.90;;;;;;5018353;28;20522;-73
2022/11/07 13:08:33;;;;;;;6.47;1.40;;;14.50;99.90;;;;;;5012459;28;20029;-72
2022/11/07 13:11:18;;;;;;;11.05;1.65;;;14.50;99.90;;;;;;5011470;28;20065;-71
2022/11/07 13:14:16;;;;;;;6.40;1.50;;;14.50;99.90;;;;;;5008326;28;20129;-70